createdAt,value
2023-04-06T00:02:01.259Z,7.53
2023-04-06T00:04:29.185Z,7.83
2023-04-06T00:06:57.672Z,7.90
2023-04-06T00:09:26.886Z,7.73
2023-04-06T00:11:54.721Z,7.57
2023-04-06T00:14:22.531Z,7.57
2023-04-06T00:16:50.391Z,7.23
2023-04-06T00:19:18.268Z,6.80
2023-04-06T00:21:46.024Z,7.47
2023-04-06T00:24:13.910Z,6.93
2023-04-06T00:26:43.134Z,8.03
2023-04-06T00:29:11.067Z,6.77
2023-04-06T00:31:38.979Z,7.23
2023-04-06T00:34:07.834Z,7.57
2023-04-06T00:36:35.607Z,6.77
2023-04-06T00:39:03.404Z,6.87
2023-04-06T00:41:31.240Z,7.53
2023-04-06T00:44:00.483Z,6.47
2023-04-06T00:46:28.355Z,7.00
2023-04-06T00:48:56.247Z,6.33
2023-04-06T00:51:24.902Z,6.97
2023-04-06T00:53:54.240Z,6.73
2023-04-06T00:56:22.312Z,6.77
2023-04-06T00:58:50.154Z,7.07
2023-04-06T01:01:19.364Z,6.93
2023-04-06T01:03:49.805Z,6.80
2023-04-06T01:06:17.796Z,6.73
2023-04-06T01:08:45.596Z,6.67
2023-04-06T01:11:13.404Z,6.83
2023-04-06T01:13:41.312Z,7.07
2023-04-06T01:16:10.837Z,7.53
2023-04-06T01:18:40.747Z,6.83
2023-04-06T01:21:09.735Z,7.20
2023-04-06T01:23:39.083Z,6.97
2023-04-06T01:26:06.882Z,6.97
2023-04-06T01:28:34.810Z,7.23
2023-04-06T01:31:02.581Z,7.10
2023-04-06T01:33:30.525Z,8.70
2023-04-06T01:35:58.329Z,7.10
2023-04-06T01:38:26.732Z,8.10
2023-04-06T01:40:56.117Z,7.70
2023-04-06T01:43:24.058Z,7.83
2023-04-06T01:45:52.038Z,8.03
2023-04-06T01:48:21.194Z,7.40
2023-04-06T01:50:49.016Z,7.73
2023-04-06T01:53:17.356Z,7.83
2023-04-06T01:55:45.309Z,7.83
2023-04-06T01:58:15.037Z,8.00
2023-04-06T02:00:42.950Z,7.77
2023-04-06T02:03:10.992Z,7.77
2023-04-06T02:05:39.775Z,8.17
2023-04-06T02:08:07.507Z,7.87
2023-04-06T02:10:36.178Z,8.20
2023-04-06T02:13:04.084Z,7.53
2023-04-06T02:15:33.336Z,7.83
2023-04-06T02:18:02.061Z,7.73
2023-04-06T02:20:29.826Z,8.33
2023-04-06T02:22:59.008Z,7.33
2023-04-06T02:25:27.428Z,7.90
2023-04-06T02:27:55.325Z,7.43
2023-04-06T02:30:23.073Z,8.00
2023-04-06T02:32:52.249Z,7.97
2023-04-06T02:35:20.206Z,7.87
2023-04-06T02:37:48.007Z,8.30
2023-04-06T02:40:16.507Z,7.53
2023-04-06T02:42:44.283Z,8.00
2023-04-06T02:45:12.235Z,8.10
2023-04-06T02:47:40.161Z,7.93
2023-04-06T02:50:10.209Z,7.90
2023-04-06T02:52:38.014Z,7.30
2023-04-06T02:55:08.547Z,8.37
2023-04-06T02:57:36.837Z,7.80
2023-04-06T03:00:05.513Z,7.87
2023-04-06T03:02:33.443Z,8.33
2023-04-06T03:05:01.259Z,8.10
2023-04-06T03:07:30.590Z,7.93
2023-04-06T03:09:58.376Z,9.07
2023-04-06T03:12:26.366Z,8.23
2023-04-06T03:14:54.080Z,8.23
2023-04-06T03:17:21.870Z,7.17
2023-04-06T03:19:49.619Z,8.63
2023-04-06T03:22:17.406Z,8.30
2023-04-06T03:24:46.475Z,8.33
2023-04-06T03:27:14.206Z,8.37
2023-04-06T03:29:42.037Z,9.57
2023-04-06T03:32:11.125Z,8.97
2023-04-06T03:34:40.430Z,8.80
2023-04-06T03:37:10.800Z,8.00
2023-04-06T03:39:38.868Z,8.57
2023-04-06T03:42:08.362Z,8.40
2023-04-06T03:44:36.114Z,8.53
2023-04-06T03:47:04.113Z,8.90
2023-04-06T03:49:31.890Z,8.87
2023-04-06T03:51:59.562Z,8.20
2023-04-06T03:54:27.361Z,8.57
2023-04-06T03:56:55.159Z,8.40
2023-04-06T03:59:24.423Z,8.63
2023-04-06T04:01:52.436Z,9.30
2023-04-06T04:04:20.369Z,9.00
2023-04-06T04:06:48.128Z,9.27
2023-04-06T04:09:15.857Z,9.50
2023-04-06T04:11:43.669Z,8.97
2023-04-06T04:14:11.497Z,8.67
2023-04-06T04:16:42.408Z,9.73
2023-04-06T04:19:10.854Z,9.43
2023-04-06T04:21:44.891Z,10.53
2023-04-06T04:24:12.887Z,10.13
2023-04-06T04:26:41.557Z,10.77
2023-04-06T04:29:09.941Z,10.53
2023-04-06T04:31:37.893Z,10.63
2023-04-06T04:34:07.961Z,10.60
2023-04-06T04:36:35.805Z,11.17
2023-04-06T04:39:03.740Z,11.23
2023-04-06T04:41:31.963Z,10.47
2023-04-06T04:43:59.876Z,11.50
2023-04-06T04:46:27.700Z,11.17
2023-04-06T04:48:55.579Z,11.73
2023-04-06T04:51:25.789Z,12.63
2023-04-06T04:53:53.563Z,11.27
2023-04-06T04:56:21.460Z,12.33
2023-04-06T04:58:49.273Z,11.53
2023-04-06T05:01:17.168Z,11.90
2023-04-06T05:03:45.122Z,11.47
2023-04-06T05:06:13.623Z,11.37
2023-04-06T05:08:43.071Z,12.00
2023-04-06T05:11:11.076Z,12.27
2023-04-06T05:13:38.868Z,11.93
2023-04-06T05:16:06.992Z,13.10
2023-04-06T05:18:35.106Z,12.03
2023-04-06T05:21:02.983Z,13.13
2023-04-06T05:23:30.845Z,13.57
2023-04-06T05:26:00.158Z,13.33
2023-04-06T05:28:27.977Z,14.07
2023-04-06T05:30:55.974Z,14.20
2023-04-06T05:33:23.881Z,14.13
2023-04-06T05:35:54.668Z,13.43
2023-04-06T05:38:22.443Z,13.60
2023-04-06T05:40:50.217Z,13.40
2023-04-06T05:43:21.142Z,13.20
2023-04-06T05:45:50.857Z,14.10
2023-04-06T05:48:18.705Z,13.47
2023-04-06T05:50:50.387Z,12.77
2023-04-06T05:53:18.378Z,13.77
2023-04-06T05:55:46.097Z,13.27
2023-04-06T05:58:14.119Z,12.93
2023-04-06T06:00:43.519Z,12.60
2023-04-06T06:03:11.960Z,12.83
2023-04-06T06:05:39.802Z,13.43
2023-04-06T06:08:07.748Z,13.07
2023-04-06T06:10:35.643Z,13.27
2023-04-06T06:13:03.568Z,12.43
2023-04-06T06:15:31.274Z,12.00
2023-04-06T06:18:00.500Z,13.07
2023-04-06T06:20:28.387Z,13.57
2023-04-06T06:22:56.939Z,12.87
2023-04-06T06:25:25.430Z,13.77
2023-04-06T06:27:53.537Z,13.00
2023-04-06T06:30:23.330Z,12.73
2023-04-06T06:32:52.385Z,12.93
2023-04-06T06:35:21.739Z,12.60
2023-04-06T06:37:49.566Z,12.80
2023-04-06T06:40:18.845Z,13.50
2023-04-06T06:42:46.878Z,13.70
2023-04-06T06:45:14.720Z,13.57
2023-04-06T06:47:42.795Z,13.40
2023-04-06T06:50:10.968Z,12.97
2023-04-06T06:52:40.733Z,13.50
2023-04-06T06:55:10.159Z,13.07
2023-04-06T06:57:37.904Z,12.73
2023-04-06T07:00:07.092Z,12.53
2023-04-06T07:02:36.702Z,11.37
2023-04-06T07:05:16.131Z,10.80
2023-04-06T07:07:54.449Z,11.43
2023-04-06T07:10:22.324Z,10.70
2023-04-06T07:12:50.695Z,9.93
2023-04-06T07:15:18.750Z,9.50
2023-04-06T07:17:47.104Z,9.53
2023-04-06T07:20:15.519Z,9.47
2023-04-06T07:22:45.492Z,9.60
2023-04-06T07:25:15.058Z,9.30
2023-04-06T07:27:43.220Z,8.87
2023-04-06T07:30:11.561Z,9.27
2023-04-06T07:32:39.425Z,10.43
2023-04-06T07:35:07.588Z,9.20
2023-04-06T07:37:35.468Z,9.97
2023-04-06T07:40:03.416Z,9.63
2023-04-06T07:42:34.249Z,9.87
2023-04-06T07:45:02.214Z,9.40
2023-04-06T07:47:30.026Z,9.47
2023-04-06T07:49:58.053Z,9.63
2023-04-06T07:52:26.049Z,9.83
2023-04-06T07:54:53.922Z,10.10
2023-04-06T07:57:21.725Z,10.23
2023-04-06T07:59:50.969Z,10.00
2023-04-06T08:02:18.972Z,9.77
2023-04-06T08:04:46.904Z,10.17
2023-04-06T08:07:14.777Z,9.40
2023-04-06T08:09:42.645Z,9.87
2023-04-06T08:12:10.536Z,9.77
2023-04-06T08:14:38.317Z,8.80
2023-04-06T08:17:07.556Z,8.33
2023-04-06T08:19:35.369Z,8.63
2023-04-06T08:22:03.474Z,8.00
2023-04-06T08:24:33.353Z,7.77
2023-04-06T08:27:01.542Z,7.17
2023-04-06T08:29:29.383Z,6.07
2023-04-06T08:31:57.404Z,5.47
2023-04-06T08:34:26.701Z,5.10
2023-04-06T08:36:54.438Z,4.63
2023-04-06T08:39:26.409Z,4.80
2023-04-06T08:41:58.068Z,4.33
2023-04-06T08:44:26.472Z,3.90
2023-04-06T08:46:54.975Z,3.60
2023-04-06T08:49:24.272Z,3.23
2023-04-06T08:51:54.078Z,2.83
2023-04-06T08:54:21.888Z,3.57
2023-04-06T08:56:50.527Z,3.13
2023-04-06T08:59:18.791Z,3.60
2023-04-06T09:01:47.896Z,3.53
2023-04-06T09:04:16.196Z,3.63
2023-04-06T09:06:45.258Z,3.63
2023-04-06T09:09:14.476Z,3.60
2023-04-06T09:11:47.772Z,3.43
2023-04-06T09:14:19.320Z,3.50
2023-04-06T09:16:48.504Z,3.70
2023-04-06T09:19:16.310Z,3.47
2023-04-06T09:21:44.007Z,4.17
2023-04-06T09:24:11.919Z,4.07
2023-04-06T09:26:50.292Z,4.33
2023-04-06T09:29:27.071Z,4.20
2023-04-06T09:32:03.691Z,4.33
2023-04-06T09:34:31.612Z,4.73
2023-04-06T09:36:59.529Z,4.57
2023-04-06T09:39:27.594Z,4.80
2023-04-06T09:41:56.832Z,4.97
2023-04-06T09:44:25.793Z,4.87
2023-04-06T09:47:00.945Z,4.33
2023-04-06T09:49:30.228Z,4.50
2023-04-06T09:52:01.532Z,4.30
2023-04-06T09:54:31.583Z,4.33
2023-04-06T09:57:08.124Z,3.87
2023-04-06T09:59:43.382Z,4.13
2023-04-06T10:02:20.399Z,4.53
2023-04-06T10:04:56.068Z,4.50
2023-04-06T10:07:24.466Z,3.80
2023-04-06T10:09:53.202Z,3.90
2023-04-06T10:12:22.798Z,3.20
2023-04-06T10:14:51.166Z,3.60
2023-04-06T10:17:18.934Z,3.63
2023-04-06T10:19:59.447Z,3.33
2023-04-06T10:22:34.391Z,3.80
2023-04-06T10:25:02.204Z,3.23
2023-04-06T10:27:32.689Z,3.30
2023-04-06T10:30:04.993Z,3.37
2023-04-06T10:32:40.039Z,3.27
2023-04-06T10:35:12.474Z,3.53
2023-04-06T10:37:52.435Z,3.30
2023-04-06T10:40:21.606Z,3.60
2023-04-06T10:42:50.756Z,3.70
2023-04-06T10:45:22.660Z,4.13
2023-04-06T10:47:50.564Z,4.40
2023-04-06T10:50:19.033Z,3.97
2023-04-06T10:52:47.905Z,3.57
2023-04-06T10:55:16.742Z,4.10
2023-04-06T10:57:44.658Z,3.97
2023-04-06T11:00:15.109Z,3.53
2023-04-06T11:02:42.884Z,4.13
2023-04-06T11:05:14.298Z,3.73
2023-04-06T11:07:42.842Z,4.10
2023-04-06T11:10:17.590Z,3.77
2023-04-06T11:12:47.197Z,4.10
2023-04-06T11:15:16.631Z,3.73
2023-04-06T11:17:46.028Z,4.10
2023-04-06T11:20:14.417Z,3.90
2023-04-06T11:22:51.169Z,4.60
2023-04-06T11:25:19.273Z,4.30
2023-04-06T11:27:47.632Z,4.00
2023-04-06T11:30:17.368Z,4.57
2023-04-06T11:32:47.082Z,4.53
2023-04-06T11:35:21.904Z,4.60
2023-04-06T11:37:50.882Z,4.40
2023-04-06T11:40:23.646Z,4.80
2023-04-06T11:42:54.897Z,4.47
2023-04-06T11:45:24.640Z,4.37
2023-04-06T11:47:59.246Z,4.80
2023-04-06T11:50:27.329Z,4.67
2023-04-06T11:53:02.264Z,4.83
2023-04-06T11:55:32.289Z,4.60
2023-04-06T11:58:01.643Z,4.80
2023-04-06T12:00:35.401Z,4.80
2023-04-06T12:03:03.388Z,4.40
2023-04-06T12:05:31.389Z,4.70
2023-04-06T12:08:01.157Z,4.70
2023-04-06T12:10:31.226Z,4.50
2023-04-06T12:12:58.995Z,4.13
2023-04-06T12:15:26.857Z,3.77
2023-04-06T12:17:56.077Z,4.70
2023-04-06T12:20:27.190Z,9.07
2023-04-06T12:22:55.822Z,4.27
2023-04-06T12:25:23.649Z,4.23
2023-04-06T12:27:51.533Z,4.07
2023-04-06T12:30:19.597Z,3.87
2023-04-06T12:32:48.958Z,4.13
2023-04-06T12:35:20.456Z,3.40
2023-04-06T12:37:48.334Z,3.43
2023-04-06T12:40:16.335Z,3.23
2023-04-06T12:42:44.102Z,3.43
2023-04-06T12:45:12.751Z,2.50
2023-04-06T12:47:40.593Z,3.40
2023-04-06T12:50:09.203Z,3.47
2023-04-06T12:52:38.323Z,3.37
2023-04-06T12:55:07.116Z,3.00
2023-04-06T12:57:34.997Z,3.37
2023-04-06T13:00:03.506Z,3.30
2023-04-06T13:02:32.879Z,2.50
2023-04-06T13:05:00.714Z,3.10
2023-04-06T13:07:28.812Z,2.87
2023-04-06T13:09:58.206Z,3.03
2023-04-06T13:12:27.243Z,3.27
2023-04-06T13:14:55.003Z,3.20
2023-04-06T13:17:23.655Z,3.30
2023-04-06T13:19:51.479Z,2.80
2023-04-06T13:22:19.276Z,3.17
2023-04-06T13:24:47.381Z,3.57
2023-04-06T13:27:16.573Z,3.63
2023-04-06T13:29:44.412Z,3.33
2023-04-06T13:32:12.353Z,3.20
2023-04-06T13:34:41.429Z,3.30
2023-04-06T13:37:09.221Z,3.30
2023-04-06T13:39:37.344Z,3.57
2023-04-06T13:42:05.420Z,3.53
2023-04-06T13:44:34.852Z,3.60
2023-04-06T13:47:02.890Z,4.00
2023-04-06T13:49:31.283Z,3.60
2023-04-06T13:51:59.153Z,3.53
2023-04-06T13:54:29.043Z,3.43
2023-04-06T13:56:57.729Z,3.50
2023-04-06T13:59:25.738Z,3.77
2023-04-06T14:01:54.995Z,3.93
2023-04-06T14:04:22.899Z,3.20
2023-04-06T14:06:50.717Z,3.60
2023-04-06T14:09:18.586Z,3.67
2023-04-06T14:11:46.772Z,3.67
2023-04-06T14:14:15.641Z,3.70
2023-04-06T14:16:45.144Z,3.53
2023-04-06T14:19:15.332Z,3.63
2023-04-06T14:21:44.703Z,3.70
2023-04-06T14:24:13.541Z,3.70
2023-04-06T14:26:42.428Z,3.90
2023-04-06T14:29:10.674Z,3.87
2023-04-06T14:31:38.992Z,3.77
2023-04-06T14:34:06.995Z,3.53
2023-04-06T14:36:39.204Z,3.30
2023-04-06T14:39:08.550Z,2.93
2023-04-06T14:41:36.923Z,2.83
2023-04-06T14:44:05.907Z,3.20
2023-04-06T14:46:34.315Z,3.23
2023-04-06T14:49:02.134Z,2.57
2023-04-06T14:51:29.926Z,2.60
2023-04-06T14:53:59.125Z,2.80
2023-04-06T14:56:26.990Z,2.50
2023-04-06T14:58:54.843Z,2.77
2023-04-06T15:01:22.661Z,3.23
2023-04-06T15:03:50.836Z,2.83
2023-04-06T15:06:21.509Z,2.87
2023-04-06T15:08:50.085Z,3.17
2023-04-06T15:11:19.531Z,3.33
2023-04-06T15:13:47.654Z,3.03
2023-04-06T15:16:16.350Z,2.67
2023-04-06T15:18:44.969Z,3.03
2023-04-06T15:21:12.860Z,3.13
2023-04-06T15:23:40.629Z,2.80
2023-04-06T15:26:08.435Z,3.07
2023-04-06T15:28:37.717Z,3.07
2023-04-06T15:31:07.163Z,3.53
2023-04-06T15:33:35.157Z,3.77
2023-04-06T15:36:08.012Z,3.33
2023-04-06T15:38:35.864Z,3.30
2023-04-06T15:41:05.299Z,3.70
2023-04-06T15:43:33.018Z,3.30
2023-04-06T15:46:03.316Z,3.60
2023-04-06T15:48:32.750Z,3.60
2023-04-06T15:51:00.561Z,3.40
2023-04-06T15:53:28.953Z,3.77
2023-04-06T15:56:00.227Z,3.93
2023-04-06T15:58:27.940Z,4.07
2023-04-06T16:00:55.802Z,4.20
2023-04-06T16:03:25.474Z,4.43
2023-04-06T16:08:27.036Z,4.60
2023-04-06T16:10:54.842Z,4.83
2023-04-06T16:13:22.866Z,5.40
2023-04-06T16:15:51.395Z,4.60
2023-04-06T16:18:19.383Z,4.73
2023-04-06T16:20:48.630Z,5.00
2023-04-06T16:23:16.583Z,4.40
2023-04-06T16:25:44.634Z,5.93
2023-04-06T16:28:12.453Z,5.20
2023-04-06T16:30:42.530Z,5.50
2023-04-06T16:33:12.917Z,5.03
2023-04-06T16:35:45.461Z,5.67
2023-04-06T16:38:14.976Z,4.67
2023-04-06T16:40:43.115Z,5.40
2023-04-06T16:43:11.258Z,5.57
2023-04-06T16:45:39.404Z,5.33
2023-04-06T16:48:08.877Z,6.23
2023-04-06T16:50:37.471Z,6.00
2023-04-06T16:53:05.365Z,6.40
2023-04-06T16:55:34.516Z,6.70
2023-04-06T16:58:02.329Z,6.50
2023-04-06T17:00:30.235Z,6.20
2023-04-06T17:02:58.206Z,7.03
2023-04-06T17:05:27.501Z,7.40
2023-04-06T17:07:55.291Z,6.30
2023-04-06T17:10:33.187Z,6.80
2023-04-06T17:13:07.258Z,6.80
2023-04-06T17:15:35.169Z,6.90
2023-04-06T17:18:03.401Z,6.40
2023-04-06T17:20:31.321Z,6.53
2023-04-06T17:22:59.023Z,6.27
2023-04-06T17:25:26.781Z,5.37
2023-04-06T17:27:54.785Z,5.83
2023-04-06T17:30:23.925Z,5.83
2023-04-06T17:32:51.734Z,5.33
2023-04-06T17:35:19.508Z,4.60
2023-04-06T17:37:48.060Z,4.10
2023-04-06T17:40:16.137Z,4.23
2023-04-06T17:42:43.972Z,2.83
2023-04-06T17:45:12.009Z,2.77
2023-04-06T17:47:41.277Z,2.40
2023-04-06T17:50:09.370Z,1.90
2023-04-06T17:52:37.408Z,1.73
2023-04-06T17:55:05.938Z,2.20
2023-04-06T17:57:33.701Z,2.30
2023-04-06T18:00:01.498Z,2.43
2023-04-06T18:02:29.537Z,2.70
2023-04-06T18:04:58.799Z,2.03
2023-04-06T18:07:26.608Z,2.23
2023-04-06T18:09:54.433Z,2.23
2023-04-06T18:12:22.499Z,2.10
2023-04-06T18:14:50.911Z,1.93
2023-04-06T18:17:18.691Z,2.03
2023-04-06T18:19:46.576Z,1.77
2023-04-06T18:22:16.399Z,2.43
2023-04-06T18:24:44.543Z,2.33
2023-04-06T18:27:13.564Z,2.03
2023-04-06T18:29:43.708Z,2.23
2023-04-06T18:32:11.492Z,2.20
2023-04-06T18:34:39.490Z,2.10
2023-04-06T18:37:07.336Z,2.10
2023-04-06T18:39:36.646Z,2.30
2023-04-06T18:42:04.608Z,2.40
2023-04-06T18:44:32.600Z,1.97
2023-04-06T18:47:00.610Z,2.00
2023-04-06T18:49:31.990Z,2.60
2023-04-06T18:52:00.036Z,1.80
2023-04-06T18:54:27.821Z,1.73
2023-04-06T18:56:56.984Z,2.17
2023-04-06T18:59:26.676Z,1.80
2023-04-06T19:01:54.829Z,1.50
2023-04-06T19:04:22.895Z,1.23
2023-04-06T19:06:50.920Z,1.53
2023-04-06T19:09:18.779Z,1.50
2023-04-06T19:11:46.648Z,1.73
2023-04-06T19:14:16.218Z,1.50
2023-04-06T19:16:51.976Z,1.40
2023-04-06T19:19:21.177Z,1.70
2023-04-06T19:21:49.366Z,1.60
2023-04-06T19:24:17.896Z,1.63
2023-04-06T19:26:46.119Z,1.60
2023-04-06T19:29:15.446Z,1.60
2023-04-06T19:31:43.308Z,1.30
2023-04-06T19:34:11.296Z,1.13
2023-04-06T19:36:39.024Z,1.37
2023-04-06T19:39:06.957Z,1.20
2023-04-06T19:41:34.678Z,1.33
2023-04-06T19:44:02.517Z,1.40
2023-04-06T19:46:31.801Z,1.53
2023-04-06T19:49:00.926Z,1.17
2023-04-06T19:51:32.585Z,1.70
2023-04-06T19:54:00.580Z,1.23
2023-04-06T19:56:28.653Z,1.30
2023-04-06T19:58:56.498Z,1.47
2023-04-06T20:01:24.373Z,1.13
2023-04-06T20:03:53.617Z,1.10
2023-04-06T20:06:21.473Z,1.07
2023-04-06T20:08:49.241Z,1.10
2023-04-06T20:11:18.005Z,1.30
2023-04-06T20:13:45.969Z,1.10
2023-04-06T20:16:13.757Z,1.30
2023-04-06T20:18:48.510Z,1.10
2023-04-06T20:21:17.716Z,1.17
2023-04-06T20:23:45.628Z,1.37
2023-04-06T20:26:13.359Z,1.10
2023-04-06T20:28:43.413Z,0.83
2023-04-06T20:31:12.226Z,1.00
2023-04-06T20:33:41.076Z,0.87
2023-04-06T20:36:09.783Z,1.00
2023-04-06T20:38:39.157Z,0.90
2023-04-06T20:41:09.092Z,0.80
2023-04-06T20:43:37.048Z,1.00
2023-04-06T20:46:05.522Z,1.10
2023-04-06T20:48:36.123Z,1.40
2023-04-06T20:51:04.153Z,1.23
2023-04-06T20:53:32.465Z,1.00
2023-04-06T20:56:02.391Z,1.17
2023-04-06T20:58:30.247Z,1.00
2023-04-06T21:00:57.987Z,1.10
2023-04-06T21:03:26.017Z,1.57
2023-04-06T21:05:55.609Z,1.13
2023-04-06T21:08:23.438Z,1.50
2023-04-06T21:10:51.266Z,1.10
2023-04-06T21:13:20.393Z,0.90
2023-04-06T21:15:48.199Z,1.20
2023-04-06T21:18:16.096Z,1.07
2023-04-06T21:20:44.543Z,1.10
2023-04-06T21:23:12.595Z,0.90
2023-04-06T21:25:40.437Z,0.93
2023-04-06T21:28:08.290Z,1.23
2023-04-06T21:30:38.087Z,1.10
2023-04-06T21:33:06.108Z,1.30
2023-04-06T21:35:34.299Z,1.30
2023-04-06T21:38:02.177Z,1.30
2023-04-06T21:40:29.924Z,1.10
2023-04-06T21:42:57.793Z,1.00
2023-04-06T21:45:25.709Z,1.13
2023-04-06T21:47:55.197Z,1.20
2023-04-06T21:50:23.064Z,1.30
2023-04-06T21:52:50.921Z,1.47
2023-04-06T21:55:18.921Z,1.53
2023-04-06T21:57:46.680Z,1.40
2023-04-06T22:00:15.609Z,1.20
2023-04-06T22:02:44.378Z,1.30
2023-04-06T22:05:13.978Z,1.80
2023-04-06T22:07:41.818Z,1.63
2023-04-06T22:10:10.027Z,1.90
2023-04-06T22:12:38.003Z,1.60
2023-04-06T22:15:06.672Z,1.73
2023-04-06T22:17:34.483Z,1.80
2023-04-06T22:20:02.297Z,1.83
2023-04-06T22:22:31.445Z,1.73
2023-04-06T22:25:01.105Z,1.80
2023-04-06T22:27:28.965Z,2.10
2023-04-06T22:29:57.195Z,1.77
2023-04-06T22:32:25.103Z,1.93
2023-04-06T22:34:52.869Z,2.50
2023-04-06T22:37:20.683Z,2.70
2023-04-06T22:39:49.988Z,2.40
2023-04-06T22:42:18.007Z,2.50
2023-04-06T22:44:45.843Z,2.60
2023-04-06T22:47:14.324Z,2.90
2023-04-06T22:49:42.134Z,2.17
2023-04-06T22:52:10.036Z,2.27
2023-04-06T22:54:37.979Z,2.90
2023-04-06T22:57:07.267Z,2.87
2023-04-06T22:59:35.021Z,2.50
2023-04-06T23:02:03.013Z,2.37
2023-04-06T23:04:31.792Z,2.70
2023-04-06T23:06:59.641Z,2.57
2023-04-06T23:09:27.410Z,2.53
2023-04-06T23:11:56.277Z,2.33
2023-04-06T23:14:25.589Z,2.80
2023-04-06T23:16:53.464Z,2.23
2023-04-06T23:19:21.554Z,2.37
2023-04-06T23:21:49.394Z,2.60
2023-04-06T23:24:17.296Z,2.67
2023-04-06T23:26:45.022Z,2.33
2023-04-06T23:29:12.791Z,2.90
2023-04-06T23:31:41.923Z,2.57
2023-04-06T23:34:09.651Z,2.27
2023-04-06T23:36:37.390Z,2.50
2023-04-06T23:39:05.442Z,2.50
2023-04-06T23:41:33.228Z,2.17
2023-04-06T23:44:01.011Z,2.37
2023-04-06T23:46:28.768Z,2.20
2023-04-06T23:48:57.862Z,2.13
2023-04-06T23:51:26.020Z,2.50
2023-04-06T23:53:53.786Z,2.60
2023-04-06T23:56:21.699Z,2.43
2023-04-06T23:58:49.421Z,2.50
